createdAt,value
2017-04-16T00:01:18.809Z,79.61
2017-04-16T00:01:58.968Z,79.23
2017-04-16T00:02:39.438Z,79.43
2017-04-16T00:03:19.924Z,79.14
2017-04-16T00:04:00.437Z,78.94
2017-04-16T00:04:40.961Z,78.94
2017-04-16T00:05:21.476Z,79.14
2017-04-16T00:06:01.958Z,78.85
2017-04-16T00:06:42.428Z,79.23
2017-04-16T00:07:22.929Z,79.19
2017-04-16T00:08:03.429Z,78.85
2017-04-16T00:08:43.909Z,79.33
2017-04-16T00:09:24.389Z,79.19
2017-04-16T00:10:04.890Z,79.23
2017-04-16T00:10:45.411Z,78.85
2017-04-16T00:11:25.877Z,79.04
2017-04-16T00:12:06.352Z,78.66
2017-04-16T00:12:46.884Z,78.37
2017-04-16T00:13:27.348Z,78.28
2017-04-16T00:14:07.827Z,78.28
2017-04-16T00:14:48.322Z,78.47
2017-04-16T00:15:28.858Z,78.37
2017-04-16T00:16:09.327Z,78.85
2017-04-16T00:16:49.813Z,78.37
2017-04-16T00:17:30.343Z,78.85
2017-04-16T00:18:10.856Z,78.75
2017-04-16T00:18:51.329Z,78.66
2017-04-16T00:19:31.824Z,78.47
2017-04-16T00:20:12.337Z,78.18
2017-04-16T00:20:52.816Z,78.28
2017-04-16T00:21:33.332Z,78.47
2017-04-16T00:22:13.834Z,78.37
2017-04-16T00:22:54.400Z,78.47
2017-04-16T00:23:34.889Z,78.66
2017-04-16T00:24:15.363Z,78.75
2017-04-16T00:24:55.817Z,78.85
2017-04-16T00:25:36.356Z,78.28
2017-04-16T00:26:16.837Z,78.37
2017-04-16T00:26:57.372Z,78.47
2017-04-16T00:27:37.870Z,78.28
2017-04-16T00:28:18.353Z,78.28
2017-04-16T00:28:58.860Z,78.47
2017-04-16T00:29:39.347Z,78.85
2017-04-16T00:30:19.863Z,78.47
2017-04-16T00:31:00.361Z,78.47
2017-04-16T00:31:40.858Z,78.56
2017-04-16T00:32:21.356Z,78.94
2017-04-16T00:33:01.857Z,78.75
2017-04-16T00:33:42.350Z,78.47
2017-04-16T00:34:22.809Z,78.28
2017-04-16T00:35:03.419Z,78.37
2017-04-16T00:35:43.937Z,78.28
2017-04-16T00:36:24.393Z,78.28
2017-04-16T00:37:04.915Z,78.37
2017-04-16T00:37:45.413Z,78.75
2017-04-16T00:38:25.906Z,78.66
2017-04-16T00:39:06.424Z,78.94
2017-04-16T00:39:46.885Z,78.81
2017-04-16T00:40:28.220Z,79.14
2017-04-16T00:41:08.738Z,79
2017-04-16T00:41:49.285Z,79.04
2017-04-16T00:42:29.734Z,78.94
2017-04-16T00:43:10.239Z,78.85
2017-04-16T00:43:50.721Z,78.37
2017-04-16T00:45:44.667Z,78.28
2017-04-16T00:46:25.388Z,78.47
2017-04-16T00:47:05.911Z,78.28
2017-04-16T00:47:46.332Z,78.47
2017-04-16T00:48:26.820Z,78.75
2017-04-16T00:49:07.313Z,78.85
2017-04-16T00:49:47.822Z,79.04
2017-04-16T00:50:28.348Z,79.1
2017-04-16T00:51:08.797Z,78.62
2017-04-16T00:51:49.290Z,79.38
2017-04-16T00:52:29.800Z,79.1
2017-04-16T00:53:10.257Z,78.91
2017-04-16T00:53:50.796Z,79.43
2017-04-16T00:54:31.232Z,79
2017-04-16T00:55:11.771Z,78.75
2017-04-16T00:55:52.240Z,79.43
2017-04-16T00:56:32.749Z,79.04
2017-04-16T00:57:13.217Z,78.94
2017-04-16T00:57:53.701Z,79.14
2017-04-16T00:58:34.207Z,78.47
2017-04-16T00:59:14.719Z,78.56
2017-04-16T00:59:55.190Z,78.37
2017-04-16T01:00:35.673Z,78.09
2017-04-16T01:01:16.147Z,78.09
2017-04-16T01:01:56.638Z,78.28
2017-04-16T01:02:37.117Z,78.28
2017-04-16T01:03:17.603Z,78.56
2017-04-16T01:03:58.110Z,78.09
2017-04-16T01:04:38.617Z,78.28
2017-04-16T01:05:19.101Z,77.51
2017-04-16T01:05:59.602Z,77.8
2017-04-16T01:06:40.130Z,77.89
2017-04-16T01:07:20.652Z,77.61
2017-04-16T01:08:01.145Z,77.42
2017-04-16T01:08:41.613Z,77.8
2017-04-16T01:09:22.111Z,77.51
2017-04-16T01:10:02.591Z,77.13
2017-04-16T01:10:43.098Z,77.03
2017-04-16T01:11:23.601Z,77.03
2017-04-16T01:12:04.110Z,76.65
2017-04-16T01:12:44.612Z,76.56
2017-04-16T01:13:25.097Z,76.08
2017-04-16T01:14:05.574Z,75.89
2017-04-16T01:14:46.079Z,75.79
2017-04-16T01:15:26.607Z,75.22
2017-04-16T01:16:07.109Z,75.22
2017-04-16T01:16:47.571Z,75.03
2017-04-16T01:17:28.073Z,75.13
2017-04-16T01:18:08.592Z,74.74
2017-04-16T01:18:49.070Z,74.65
2017-04-16T01:19:29.543Z,74.55
2017-04-16T01:20:10.029Z,74.08
2017-04-16T01:20:50.533Z,73.5
2017-04-16T01:21:31.005Z,73.98
2017-04-16T01:22:11.532Z,73.98
2017-04-16T01:24:09.853Z,73.6
2017-04-16T01:24:50.652Z,73.69
2017-04-16T01:25:31.141Z,73.32
2017-04-16T01:26:11.674Z,73.79
2017-04-16T01:26:52.166Z,73.6
2017-04-16T01:27:32.659Z,72.74
2017-04-16T01:28:13.323Z,72.93
2017-04-16T01:28:53.786Z,72.55
2017-04-16T01:29:34.356Z,72.36
2017-04-16T01:30:14.834Z,71.98
2017-04-16T01:30:55.343Z,72.07
2017-04-16T01:31:35.797Z,71.88
2017-04-16T01:32:16.280Z,70.83
2017-04-16T01:32:56.781Z,71.02
2017-04-16T01:33:37.269Z,71.31
2017-04-16T01:34:17.785Z,71.21
2017-04-16T01:34:58.328Z,71.31
2017-04-16T01:35:38.797Z,70.83
2017-04-16T01:36:19.277Z,70.45
2017-04-16T01:36:59.771Z,70.54
2017-04-16T01:37:40.287Z,70.45
2017-04-16T01:38:20.775Z,69.78
2017-04-16T01:39:01.273Z,70.16
2017-04-16T01:39:41.797Z,69.82
2017-04-16T01:40:22.287Z,69.62
2017-04-16T01:41:02.773Z,68.96
2017-04-16T01:41:43.274Z,69.02
2017-04-16T01:42:23.803Z,68.96
2017-04-16T01:43:04.263Z,69.11
2017-04-16T01:43:44.752Z,69.02
2017-04-16T01:44:25.282Z,69.02
2017-04-16T01:45:05.763Z,68.92
2017-04-16T01:45:46.220Z,69.02
2017-04-16T01:46:26.689Z,68.73
2017-04-16T01:47:07.187Z,68.06
2017-04-16T01:47:47.666Z,68.06
2017-04-16T01:48:28.166Z,67.58
2017-04-16T01:49:08.660Z,67.4
2017-04-16T01:49:49.171Z,67.3
2017-04-16T01:50:29.708Z,66.53
2017-04-16T01:51:10.154Z,66.44
2017-04-16T01:51:50.658Z,66.53
2017-04-16T01:52:31.155Z,65.48
2017-04-16T01:53:11.652Z,64.91
2017-04-16T01:53:52.153Z,64.05
2017-04-16T01:54:32.658Z,63.2
2017-04-16T01:55:13.170Z,62.81
2017-04-16T01:55:53.653Z,62.52
2017-04-16T01:56:34.151Z,62.43
2017-04-16T01:57:14.651Z,61.76
2017-04-16T01:57:55.140Z,61.86
2017-04-16T01:58:35.663Z,61.19
2017-04-16T01:59:16.153Z,60.81
2017-04-16T01:59:56.688Z,60.14
2017-04-16T02:00:37.174Z,60.04
2017-04-16T02:01:17.654Z,59.85
2017-04-16T02:01:58.163Z,59.09
2017-04-16T02:02:38.679Z,59.19
2017-04-16T02:03:19.159Z,58.42
2017-04-16T02:03:59.661Z,58.42
2017-04-16T02:04:40.187Z,58.42
2017-04-16T02:05:20.653Z,58.04
2017-04-16T02:06:01.187Z,57.94
2017-04-16T02:06:41.661Z,57.59
2017-04-16T02:07:22.197Z,57.65
2017-04-16T02:08:02.661Z,57.46
2017-04-16T02:08:43.178Z,57.65
2017-04-16T02:09:23.687Z,57.65
2017-04-16T02:10:04.164Z,57.75
2017-04-16T02:10:44.681Z,57.85
2017-04-16T02:11:25.148Z,58.42
2017-04-16T02:12:05.679Z,58.61
2017-04-16T02:12:46.210Z,58.51
2017-04-16T02:13:26.681Z,58.42
2017-04-16T02:14:07.177Z,58.9
2017-04-16T02:14:47.676Z,58.8
2017-04-16T02:15:28.203Z,58.9
2017-04-16T02:16:08.670Z,58.9
2017-04-16T02:16:49.169Z,59.19
2017-04-16T02:17:29.741Z,59.19
2017-04-16T02:18:10.245Z,58.9
2017-04-16T02:18:50.700Z,59.38
2017-04-16T02:19:31.159Z,59.56
2017-04-16T02:20:11.653Z,59.66
2017-04-16T02:20:52.131Z,59.59
2017-04-16T02:21:32.627Z,59.69
2017-04-16T02:22:13.126Z,60.04
2017-04-16T02:22:53.622Z,60.04
2017-04-16T02:23:34.173Z,60.42
2017-04-16T02:24:14.615Z,60.71
2017-04-16T02:24:55.116Z,60.42
2017-04-16T02:25:35.630Z,61.29
2017-04-16T02:26:16.100Z,61.29
2017-04-16T02:26:56.622Z,61.66
2017-04-16T02:27:37.098Z,61.29
2017-04-16T02:28:17.593Z,62.34
2017-04-16T02:28:58.121Z,62.62
2017-04-16T02:29:38.626Z,62.62
2017-04-16T02:30:19.114Z,62.62
2017-04-16T02:30:59.569Z,63.39
2017-04-16T02:31:40.084Z,63.86
2017-04-16T02:32:20.576Z,64.43
2017-04-16T02:33:01.039Z,64.69
2017-04-16T02:33:41.541Z,64.88
2017-04-16T02:34:21.999Z,64.81
2017-04-16T02:35:02.508Z,65.17
2017-04-16T02:35:42.993Z,65.26
2017-04-16T02:36:23.486Z,64.88
2017-04-16T02:37:03.993Z,65.87
2017-04-16T02:37:44.552Z,65.87
2017-04-16T02:38:25.247Z,65.77
2017-04-16T02:39:05.699Z,65.58
2017-04-16T02:39:46.244Z,65.67
2017-04-16T02:40:26.710Z,65.87
2017-04-16T02:41:07.199Z,65.39
2017-04-16T02:41:47.714Z,65.77
2017-04-16T02:42:28.183Z,65.96
2017-04-16T02:43:08.733Z,65.87
2017-04-16T02:43:49.205Z,65.87
2017-04-16T02:44:29.663Z,65.87
2017-04-16T02:45:10.138Z,65.39
2017-04-16T02:45:50.628Z,65.87
2017-04-16T02:46:31.124Z,66.35
2017-04-16T02:47:11.652Z,66.06
2017-04-16T02:47:52.118Z,66.25
2017-04-16T02:48:32.664Z,65.87
2017-04-16T02:49:13.106Z,65.96
2017-04-16T02:49:53.622Z,66.15
2017-04-16T02:50:34.090Z,66.15
2017-04-16T02:51:14.591Z,65.87
2017-04-16T02:51:55.106Z,66.44
2017-04-16T02:52:35.649Z,66.15
2017-04-16T02:53:16.155Z,66.06
2017-04-16T02:53:56.626Z,67.4
2017-04-16T02:54:37.100Z,67.49
2017-04-16T02:55:17.594Z,67.87
2017-04-16T02:55:58.092Z,68.22
2017-04-16T02:56:38.640Z,68.98
2017-04-16T02:57:19.094Z,68.79
2017-04-16T02:57:59.574Z,70.13
2017-04-16T02:58:40.070Z,70.42
2017-04-16T02:59:20.568Z,70.51
2017-04-16T03:00:01.047Z,71.08
2017-04-16T03:00:41.549Z,71.18
2017-04-16T03:01:22.045Z,71.46
2017-04-16T03:02:02.546Z,71.94
2017-04-16T03:02:43.028Z,72.32
2017-04-16T03:03:23.517Z,72.8
2017-04-16T03:04:04.039Z,72.51
2017-04-16T03:04:44.532Z,72.42
2017-04-16T03:05:25.009Z,72.61
2017-04-16T03:06:05.512Z,73.18
2017-04-16T03:06:46.000Z,73.28
2017-04-16T03:07:26.474Z,72.8
2017-04-16T03:08:06.977Z,73.75
2017-04-16T03:08:47.489Z,73.75
2017-04-16T03:09:27.954Z,73.75
2017-04-16T03:10:08.455Z,73.85
2017-04-16T03:10:48.977Z,74.13
2017-04-16T03:11:29.515Z,74.8
2017-04-16T03:12:09.931Z,74.71
2017-04-16T03:12:50.449Z,74.8
2017-04-16T03:13:30.966Z,74.8
2017-04-16T03:14:11.460Z,74.9
2017-04-16T03:14:51.926Z,75.37
2017-04-16T03:15:32.426Z,75.57
2017-04-16T03:16:12.891Z,75.76
2017-04-16T03:16:53.386Z,75.95
2017-04-16T03:17:33.890Z,75.95
2017-04-16T03:18:14.372Z,75.85
2017-04-16T03:18:54.866Z,75.95
2017-04-16T03:19:35.366Z,76.04
2017-04-16T03:20:15.861Z,75.95
2017-04-16T03:20:56.395Z,75.66
2017-04-16T03:21:36.893Z,75.76
2017-04-16T03:22:17.384Z,75.95
2017-04-16T03:22:57.877Z,76.42
2017-04-16T03:23:38.344Z,76.42
2017-04-16T03:24:18.841Z,76.71
2017-04-16T03:24:59.375Z,76.62
2017-04-16T03:25:39.850Z,76.96
2017-04-16T03:26:20.377Z,76.81
2017-04-16T03:27:00.844Z,76.86
2017-04-16T03:27:41.327Z,77.82
2017-04-16T03:28:21.868Z,77.82
2017-04-16T03:29:02.380Z,77.91
2017-04-16T03:29:42.863Z,77.82
2017-04-16T03:30:23.390Z,78.1
2017-04-16T03:31:03.858Z,78.3
2017-04-16T03:31:44.349Z,78.2
2017-04-16T03:32:24.879Z,77.53
2017-04-16T03:33:05.350Z,78.39
2017-04-16T03:33:45.850Z,78.2
2017-04-16T03:34:26.337Z,78.2
2017-04-16T03:35:06.880Z,78.33
2017-04-16T03:35:47.355Z,77.95
2017-04-16T03:36:27.843Z,77.57
2017-04-16T03:37:08.308Z,77.57
2017-04-16T03:37:48.814Z,77.86
2017-04-16T03:38:29.288Z,77.86
2017-04-16T03:39:09.781Z,77.47
2017-04-16T03:39:50.333Z,77.57
2017-04-16T03:40:30.769Z,77.95
2017-04-16T03:41:11.256Z,78.23
2017-04-16T03:41:51.770Z,78.14
2017-04-16T03:42:32.253Z,77.47
2017-04-16T03:43:12.742Z,77.47
2017-04-16T03:43:53.236Z,77.95
2017-04-16T03:44:33.729Z,77.95
2017-04-16T03:45:14.234Z,77.72
2017-04-16T03:45:54.728Z,77.86
2017-04-16T03:46:35.253Z,77.47
2017-04-16T03:47:15.726Z,77.67
2017-04-16T03:47:56.223Z,77.47
2017-04-16T03:48:36.779Z,77
2017-04-16T03:49:17.252Z,76.9
2017-04-16T03:49:57.767Z,77.09
2017-04-16T03:50:38.220Z,77
2017-04-16T03:51:18.755Z,76.52
2017-04-16T03:51:59.243Z,76.42
2017-04-16T03:52:39.708Z,75.76
2017-04-16T03:53:20.210Z,75.76
2017-04-16T03:54:00.679Z,75.95
2017-04-16T03:54:41.228Z,75.95
2017-04-16T03:55:21.681Z,76.14
2017-04-16T03:56:02.139Z,75.85
2017-04-16T03:56:42.661Z,75.85
2017-04-16T03:57:23.159Z,76.23
2017-04-16T03:58:03.631Z,76.14
2017-04-16T03:58:44.146Z,76.62
2017-04-16T03:59:24.633Z,76.23
2017-04-16T04:00:05.113Z,76.33
2017-04-16T04:00:45.590Z,76.33
2017-04-16T04:01:26.106Z,76.14
2017-04-16T04:02:06.705Z,76.52
2017-04-16T04:02:47.217Z,75.57
2017-04-16T04:03:27.666Z,76.14
2017-04-16T04:04:08.169Z,75.85
2017-04-16T04:04:48.675Z,76.14
2017-04-16T04:05:29.139Z,76.14
2017-04-16T04:06:09.673Z,76.42
2017-04-16T04:06:50.135Z,76.23
2017-04-16T04:07:30.677Z,75.95
2017-04-16T04:08:11.159Z,75.85
2017-04-16T04:08:51.601Z,76.23
2017-04-16T04:09:32.112Z,76.23
2017-04-16T04:10:12.601Z,75.85
2017-04-16T04:10:53.114Z,76.04
2017-04-16T04:11:33.560Z,75.95
2017-04-16T04:12:14.077Z,75.76
2017-04-16T04:12:54.564Z,75.57
2017-04-16T04:13:35.060Z,75.85
2017-04-16T04:14:15.535Z,75.47
2017-04-16T04:14:56.012Z,75.57
2017-04-16T04:15:36.547Z,75.95
2017-04-16T04:16:17.029Z,75.95
2017-04-16T04:16:57.535Z,76.52
2017-04-16T04:17:38.034Z,77
2017-04-16T04:18:18.550Z,76.9
2017-04-16T04:18:59.061Z,77.57
2017-04-16T04:19:39.519Z,77.91
2017-04-16T04:20:20.042Z,78.3
2017-04-16T04:21:00.533Z,78.3
2017-04-16T04:21:41.053Z,78.01
2017-04-16T04:22:21.537Z,78.01
2017-04-16T04:23:02.082Z,77.91
2017-04-16T04:23:42.578Z,78.2
2017-04-16T04:24:23.079Z,78.1
2017-04-16T04:25:03.560Z,78.3
2017-04-16T04:25:44.077Z,78.3
2017-04-16T04:26:24.538Z,78.86
2017-04-16T04:27:05.064Z,78.96
2017-04-16T04:27:45.534Z,78.77
2017-04-16T04:28:26.025Z,78.86
2017-04-16T04:29:06.516Z,78.96
2017-04-16T04:29:47.017Z,78.86
2017-04-16T04:30:27.504Z,79.15
2017-04-16T04:31:07.999Z,79.06
2017-04-16T04:31:48.515Z,78.67
2017-04-16T04:32:28.996Z,78.86
2017-04-16T04:33:09.445Z,78.86
2017-04-16T04:33:50.013Z,78.96
2017-04-16T04:34:30.496Z,78.96
2017-04-16T04:35:10.993Z,79.15
2017-04-16T04:35:51.535Z,79.25
2017-04-16T04:36:31.969Z,79.15
2017-04-16T04:37:12.480Z,79.82
2017-04-16T04:37:53.020Z,79.44
2017-04-16T04:38:33.482Z,79.91
2017-04-16T04:39:13.953Z,79.82
2017-04-16T04:39:54.487Z,79.53
2017-04-16T04:40:34.975Z,79.44
2017-04-16T04:41:15.487Z,79.91
2017-04-16T04:41:55.984Z,79.53
2017-04-16T04:42:36.472Z,80.11
2017-04-16T04:43:16.987Z,79.91
2017-04-16T04:43:57.458Z,80.49
2017-04-16T04:44:38.081Z,80.39
2017-04-16T04:45:18.552Z,80.49
2017-04-16T04:45:59.112Z,80.58
2017-04-16T04:46:39.591Z,80.01
2017-04-16T04:47:20.072Z,80.49
2017-04-16T04:48:00.802Z,80.58
2017-04-16T04:48:41.338Z,80.49
2017-04-16T04:49:21.842Z,80.3
2017-04-16T04:51:15.593Z,79.72
2017-04-16T04:51:56.344Z,79.91
2017-04-16T04:52:36.865Z,79.53
2017-04-16T04:53:17.328Z,79.35
2017-04-16T04:53:57.813Z,79.35
2017-04-16T04:54:38.327Z,79.63
2017-04-16T04:55:18.775Z,79.06
2017-04-16T04:55:59.275Z,79.15
2017-04-16T04:56:39.831Z,79.25
2017-04-16T04:57:20.284Z,78.96
2017-04-16T04:58:00.778Z,79.44
2017-04-16T04:58:41.269Z,79.35
2017-04-16T04:59:21.750Z,79.44
2017-04-16T05:00:02.238Z,78.96
2017-04-16T05:00:42.741Z,78.96
2017-04-16T05:01:23.223Z,79.72
2017-04-16T05:02:03.701Z,79.06
2017-04-16T05:02:44.196Z,79.44
2017-04-16T05:03:24.725Z,78.96
2017-04-16T05:04:05.218Z,79.15
2017-04-16T05:04:45.702Z,79.35
2017-04-16T05:05:26.208Z,79.15
2017-04-16T05:06:06.731Z,79.06
2017-04-16T05:06:47.198Z,79.15
2017-04-16T05:07:27.677Z,79.25
2017-04-16T05:08:08.216Z,79.06
2017-04-16T05:08:48.692Z,79.44
2017-04-16T05:09:29.188Z,79.44
2017-04-16T05:10:09.790Z,79.44
2017-04-16T05:10:50.281Z,79.53
2017-04-16T05:11:30.740Z,79.15
2017-04-16T05:12:11.270Z,78.77
2017-04-16T05:12:51.756Z,79
2017-04-16T05:13:32.237Z,78.96
2017-04-16T05:14:12.772Z,78.96
2017-04-16T05:14:53.269Z,79.06
2017-04-16T05:15:33.765Z,79.06
2017-04-16T05:16:14.241Z,78.49
2017-04-16T05:16:54.731Z,79.06
2017-04-16T05:17:35.259Z,78.96
2017-04-16T05:18:15.717Z,78.86
2017-04-16T05:18:56.228Z,78.91
2017-04-16T05:19:36.708Z,78.52
2017-04-16T05:20:17.210Z,78.91
2017-04-16T05:20:57.740Z,78.62
2017-04-16T05:21:38.273Z,78.14
2017-04-16T05:22:18.736Z,77.95
2017-04-16T05:22:59.250Z,78.33
2017-04-16T05:23:39.738Z,78.05
2017-04-16T05:24:20.252Z,78.05
2017-04-16T05:25:00.706Z,78.05
2017-04-16T05:25:41.224Z,78.01
2017-04-16T05:26:21.705Z,78.05
2017-04-16T05:27:02.251Z,77.72
2017-04-16T05:27:42.703Z,78.67
2017-04-16T05:28:23.176Z,78.39
2017-04-16T05:29:03.727Z,78.39
2017-04-16T05:29:44.199Z,77.76
2017-04-16T05:30:24.703Z,78.05
2017-04-16T05:31:05.188Z,78.2
2017-04-16T05:31:45.705Z,78.3
2017-04-16T05:32:26.223Z,78.77
2017-04-16T05:33:06.693Z,78.49
2017-04-16T05:33:47.205Z,77.95
2017-04-16T05:34:27.864Z,78.01
2017-04-16T05:35:08.440Z,78.23
2017-04-16T05:35:48.851Z,78.1
2017-04-16T05:36:29.386Z,78.33
2017-04-16T05:37:09.865Z,78.1
2017-04-16T05:37:50.380Z,77.91
2017-04-16T05:38:30.814Z,77.91
2017-04-16T05:39:11.322Z,77.91
2017-04-16T05:39:51.813Z,78.1
2017-04-16T05:40:32.286Z,78.2
2017-04-16T05:41:12.816Z,78.3
2017-04-16T05:41:53.304Z,78.2
2017-04-16T05:42:34.585Z,78.2
2017-04-16T05:43:14.324Z,77.91
2017-04-16T05:43:54.830Z,78.01
2017-04-16T05:44:35.424Z,78.01
2017-04-16T05:45:15.919Z,77.91
2017-04-16T05:45:56.442Z,77.91
2017-04-16T05:46:36.923Z,78.58
2017-04-16T05:47:17.628Z,77.91
2017-04-16T05:47:57.935Z,78.2
2017-04-16T05:48:38.393Z,77.72
2017-04-16T05:49:18.882Z,77.76
2017-04-16T05:49:59.379Z,77.19
2017-04-16T05:50:39.890Z,76.9
2017-04-16T05:51:20.351Z,76.71
2017-04-16T05:52:00.850Z,76.33
2017-04-16T05:52:41.385Z,76.62
2017-04-16T05:53:21.864Z,75.95
2017-04-16T05:54:02.332Z,76.42
2017-04-16T05:54:42.816Z,75.76
2017-04-16T05:55:23.302Z,76.23
2017-04-16T05:56:03.818Z,76.04
2017-04-16T05:56:44.345Z,75.66
2017-04-16T05:57:24.918Z,75.66
2017-04-16T05:58:05.298Z,75.28
2017-04-16T05:58:45.817Z,75.47
2017-04-16T05:59:26.313Z,75.47
2017-04-16T06:00:07.145Z,75.09
2017-04-16T06:00:47.609Z,75.09
2017-04-16T06:01:28.094Z,74.9
2017-04-16T06:02:08.583Z,74.8
2017-04-16T06:02:49.073Z,75.09
2017-04-16T06:03:29.632Z,75.09
2017-04-16T06:04:10.149Z,74.8
2017-04-16T06:04:50.607Z,74.8
2017-04-16T06:05:31.215Z,74.8
2017-04-16T06:06:11.674Z,74.42
2017-04-16T06:06:52.192Z,74.8
2017-04-16T06:07:32.703Z,74.13
2017-04-16T06:08:13.200Z,74.23
2017-04-16T06:08:53.664Z,73.94
2017-04-16T06:09:34.182Z,73.94
2017-04-16T06:10:14.660Z,73.75
2017-04-16T06:10:55.176Z,73.66
2017-04-16T06:11:35.683Z,74.32
2017-04-16T06:12:16.923Z,74.13
2017-04-16T06:12:57.435Z,74.61
2017-04-16T06:13:38.092Z,74.04
2017-04-16T06:14:18.580Z,74.13
2017-04-16T06:14:59.101Z,74.23
2017-04-16T06:15:39.575Z,74.04
2017-04-16T06:16:20.083Z,73.56
2017-04-16T06:17:00.589Z,73.85
2017-04-16T06:17:41.056Z,72.89
2017-04-16T06:18:21.587Z,72.89
2017-04-16T06:19:02.117Z,73.08
2017-04-16T06:19:42.591Z,73.37
2017-04-16T06:20:23.094Z,72.99
2017-04-16T06:22:42.890Z,72.61
2017-04-16T06:23:23.283Z,72.61
2017-04-16T06:24:03.776Z,72.8
2017-04-16T06:24:44.278Z,72.93
2017-04-16T06:25:24.765Z,71.98
2017-04-16T06:26:05.234Z,71.21
2017-04-16T06:26:45.734Z,71.31
2017-04-16T06:27:26.253Z,70.83
2017-04-16T06:28:06.778Z,71.21
2017-04-16T06:28:47.230Z,70.83
2017-04-16T06:29:27.739Z,71.12
2017-04-16T06:30:08.224Z,70.64
2017-04-16T06:30:48.718Z,70.73
2017-04-16T06:31:29.230Z,70.36
2017-04-16T06:32:09.770Z,70.54
2017-04-16T06:32:50.220Z,69.78
2017-04-16T06:33:30.717Z,69.78
2017-04-16T06:34:11.184Z,69.49
2017-04-16T06:34:51.677Z,69.21
2017-04-16T06:35:32.189Z,69.31
2017-04-16T06:36:12.665Z,69.11
2017-04-16T06:36:53.147Z,68.92
2017-04-16T06:37:33.672Z,68.35
2017-04-16T06:38:14.275Z,68.19
2017-04-16T06:38:55.707Z,67.91
2017-04-16T06:39:36.199Z,67.71
2017-04-16T06:40:16.703Z,68.19
2017-04-16T06:40:57.211Z,68
2017-04-16T06:41:37.667Z,67.52
2017-04-16T06:42:18.170Z,67.52
2017-04-16T06:42:58.654Z,67.52
2017-04-16T06:43:39.158Z,67.24
2017-04-16T06:44:19.633Z,66.66
2017-04-16T06:45:00.203Z,66.76
2017-04-16T06:45:40.707Z,66.56
2017-04-16T06:46:21.203Z,66.19
2017-04-16T06:47:01.679Z,66.09
2017-04-16T06:47:42.206Z,66.22
2017-04-16T06:48:22.817Z,65.9
2017-04-16T06:49:03.304Z,65.8
2017-04-16T06:49:43.832Z,65.8
2017-04-16T06:50:24.281Z,66
2017-04-16T06:51:04.747Z,66
2017-04-16T06:51:45.265Z,65.84
2017-04-16T06:52:26.512Z,65.33
2017-04-16T06:53:06.916Z,65.14
2017-04-16T06:53:47.430Z,65.23
2017-04-16T06:54:27.917Z,65.23
2017-04-16T06:55:08.404Z,65.23
2017-04-16T06:55:48.897Z,65.36
2017-04-16T06:56:29.381Z,65.07
2017-04-16T06:57:09.863Z,65.26
2017-04-16T06:57:50.381Z,65.33
2017-04-16T06:58:30.872Z,64.94
2017-04-16T06:59:11.395Z,65.14
2017-04-16T06:59:51.883Z,65.36
2017-04-16T07:00:32.377Z,65.36
2017-04-16T07:01:12.900Z,64.88
2017-04-16T07:01:53.797Z,64.88
2017-04-16T07:02:34.258Z,65.33
2017-04-16T07:03:14.738Z,65.33
2017-04-16T07:03:55.269Z,64.69
2017-04-16T07:04:35.731Z,65.14
2017-04-16T07:05:16.274Z,64.69
2017-04-16T07:05:56.762Z,64.22
2017-04-16T07:06:37.470Z,64.31
2017-04-16T07:07:17.940Z,64.12
2017-04-16T07:07:58.422Z,63.64
2017-04-16T07:08:38.911Z,63.83
2017-04-16T07:09:19.411Z,63.83
2017-04-16T07:09:59.909Z,63.83
2017-04-16T07:10:40.470Z,64.18
2017-04-16T07:11:20.934Z,64.18
2017-04-16T07:12:01.402Z,64.56
2017-04-16T07:12:41.930Z,64.09
2017-04-16T07:13:23.907Z,64.28
2017-04-16T07:14:05.023Z,64.18
2017-04-16T07:14:46.488Z,64.18
2017-04-16T07:15:26.946Z,63.99
2017-04-16T07:16:07.447Z,64.47
2017-04-16T07:16:47.945Z,64.47
2017-04-16T07:17:28.518Z,64.18
2017-04-16T07:18:08.950Z,64.37
2017-04-16T07:18:49.431Z,64.56
2017-04-16T07:19:29.920Z,64.37
2017-04-16T07:20:10.441Z,64.18
2017-04-16T07:20:50.918Z,64.37
2017-04-16T07:21:31.421Z,63.7
2017-04-16T07:22:11.891Z,63.8
2017-04-16T07:22:52.356Z,63.93
2017-04-16T07:23:32.974Z,63.73
2017-04-16T07:24:13.438Z,63.07
2017-04-16T07:24:53.989Z,63.54
2017-04-16T07:25:34.486Z,62.68
2017-04-16T07:26:14.988Z,63.35
2017-04-16T07:26:55.463Z,63.16
2017-04-16T07:27:35.935Z,62.49
2017-04-16T07:28:16.483Z,62.87
2017-04-16T07:28:57.088Z,62.78
2017-04-16T07:29:37.540Z,62.78
2017-04-16T07:30:18.073Z,62.78
2017-04-16T07:30:58.601Z,62.97
2017-04-16T07:31:39.138Z,62.87
2017-04-16T07:32:19.686Z,62.4
2017-04-16T07:33:00.113Z,62.87
2017-04-16T07:33:40.602Z,62.68
2017-04-16T07:34:21.073Z,62.59
2017-04-16T07:35:01.618Z,62.21
2017-04-16T07:35:42.109Z,62.21
2017-04-16T07:36:22.585Z,62.3
2017-04-16T07:37:03.353Z,61.92
2017-04-16T07:37:43.923Z,61.44
2017-04-16T07:38:24.573Z,61.44
2017-04-16T07:39:05.232Z,61.54
2017-04-16T07:39:45.833Z,61.54
2017-04-16T07:40:26.499Z,61.72
2017-04-16T07:41:06.933Z,62.21
2017-04-16T07:41:47.453Z,62.21
2017-04-16T07:42:27.915Z,62.3
2017-04-16T07:43:08.399Z,62.21
2017-04-16T07:43:49.055Z,62.49
2017-04-16T07:44:29.495Z,61.92
2017-04-16T07:45:09.996Z,61.44
2017-04-16T07:45:50.488Z,61.44
2017-04-16T07:46:30.995Z,61.54
2017-04-16T07:47:11.511Z,61.25
2017-04-16T07:47:51.983Z,61.72
2017-04-16T07:48:32.450Z,61.25
2017-04-16T07:49:12.958Z,61.44
2017-04-16T07:49:53.501Z,61.54
2017-04-16T07:50:33.908Z,61.09
2017-04-16T07:51:14.670Z,60.9
2017-04-16T07:51:55.173Z,60.39
2017-04-16T07:52:35.707Z,60.42
2017-04-16T07:53:16.194Z,59.75
2017-04-16T07:53:56.668Z,60.13
2017-04-16T07:54:37.284Z,59.66
2017-04-16T07:55:17.828Z,58.89
2017-04-16T07:55:58.402Z,59.27
2017-04-16T07:56:38.903Z,58.98
2017-04-16T07:57:19.356Z,59.34
2017-04-16T07:57:59.845Z,59.53
2017-04-16T07:58:40.413Z,59.91
2017-04-16T07:59:20.902Z,59.34
2017-04-16T08:00:01.345Z,58.76
2017-04-16T08:00:41.918Z,58.67
2017-04-16T08:01:22.323Z,58.61
2017-04-16T08:02:02.785Z,58.7
2017-04-16T08:02:43.319Z,58.03
2017-04-16T08:03:23.753Z,57.65
2017-04-16T08:04:04.285Z,57.65
2017-04-16T08:04:44.753Z,57.24
2017-04-16T08:05:25.374Z,57.04
2017-04-16T08:06:06.189Z,57.24
2017-04-16T08:06:46.712Z,57.24
2017-04-16T08:07:27.185Z,57.14
2017-04-16T08:08:07.812Z,57.43
2017-04-16T08:08:48.268Z,57.33
2017-04-16T08:09:28.789Z,57.24
2017-04-16T08:10:09.288Z,57.36
2017-04-16T08:10:50.666Z,56.85
2017-04-16T08:11:31.116Z,56.98
2017-04-16T08:12:11.634Z,56.98
2017-04-16T08:12:52.129Z,57.04
2017-04-16T08:13:33.416Z,56.76
2017-04-16T08:14:14.360Z,56.76
2017-04-16T08:14:55.705Z,57.53
2017-04-16T08:15:36.386Z,56.95
2017-04-16T08:16:16.950Z,56.88
2017-04-16T08:16:57.620Z,56.88
2017-04-16T08:17:38.496Z,56.98
2017-04-16T08:18:18.840Z,57.46
2017-04-16T08:18:59.347Z,56.85
2017-04-16T08:19:39.823Z,57.07
2017-04-16T08:20:20.302Z,56.98
2017-04-16T08:21:00.838Z,56.5
2017-04-16T08:21:41.676Z,56.4
2017-04-16T08:22:22.216Z,56.4
2017-04-16T08:23:02.767Z,56.31
2017-04-16T08:23:43.444Z,56.02
2017-04-16T08:24:23.870Z,55.93
2017-04-16T08:25:04.340Z,55.83
2017-04-16T08:25:44.858Z,55.54
2017-04-16T08:26:25.576Z,55.07
2017-04-16T08:27:06.114Z,54.88
2017-04-16T08:27:46.513Z,55.35
2017-04-16T08:28:27.075Z,55.35
2017-04-16T08:29:07.543Z,55.35
2017-04-16T08:29:48.063Z,55.07
2017-04-16T08:30:28.562Z,55.54
2017-04-16T08:31:09.071Z,55.83
2017-04-16T08:31:49.549Z,55.64
2017-04-16T08:32:30.107Z,55.74
2017-04-16T08:33:10.621Z,56.02
2017-04-16T08:33:51.046Z,55.74
2017-04-16T08:34:31.550Z,56.12
2017-04-16T08:35:12.039Z,55.45
2017-04-16T08:35:52.510Z,55.16
2017-04-16T08:36:33.001Z,55.07
2017-04-16T08:37:13.502Z,55.26
2017-04-16T08:37:53.999Z,54.59
2017-04-16T08:38:34.454Z,54.59
2017-04-16T08:39:14.963Z,54.68
2017-04-16T08:39:55.605Z,54.59
2017-04-16T08:40:36.091Z,53.92
2017-04-16T08:41:16.575Z,54.11
2017-04-16T08:41:57.096Z,54.3
2017-04-16T08:42:37.599Z,53.82
2017-04-16T08:43:18.111Z,54.02
2017-04-16T08:43:58.673Z,54.02
2017-04-16T08:44:39.132Z,54.14
2017-04-16T08:45:19.655Z,53.82
2017-04-16T08:46:00.156Z,53.73
2017-04-16T08:46:40.666Z,54.23
2017-04-16T08:47:21.172Z,53.75
2017-04-16T08:48:01.660Z,53.85
2017-04-16T08:48:42.147Z,54.14
2017-04-16T08:49:22.634Z,53.75
2017-04-16T08:50:03.167Z,53.75